<?xml version="1.0" encoding="UTF-8"?>
<gpx version="1.1" creator="https://www.youtrack.es" xsi:schemaLocation="http://www.topografix.com/GPX/1/1 http://www.topografix.com/GPX/1/1/gpx.xsd http://www.garmin.com/xmlschemas/GpxExtensions/v3 http://www.garmin.com/xmlschemas/GpxExtensionsv3.xsd http://www.garmin.com/xmlschemas/TrackPointExtension/v1 http://www.garmin.com/xmlschemas/TrackPointExtensionv1.xsd" xmlns:gpxtpx="http://www.garmin.com/xmlschemas/TrackPointExtension/v1" xmlns:gpxx="http://www.garmin.com/xmlschemas/GpxExtensions/v3" xmlns:xsi="http://www.w3.org/2001/XMLSchema-instance">
  <metadata>
    <link href="https://www.youtrack.es">
      <text>YouTrack.es</text>
    </link>
    <time>2026-05-08T18:29:17Z</time>
  </metadata>
  <trk>
    <src>https://www.youtrack.es</src>
    <link href="https://www.youtrack.es/ruta/3429-trofeo">
      <text>YouTrack.es</text>
    </link>
    <trkseg>
      <trkpt lat="37.969779" lon="-1.213877">
        <ele>73.768</ele>
        <time>2018-12-26T13:09:19Z</time>
      </trkpt>
      <trkpt lat="37.969559" lon="-1.214381">
        <ele>74.242</ele>
        <time>2018-12-26T13:09:39Z</time>
      </trkpt>
      <trkpt lat="37.969343" lon="-1.214815">
        <ele>71.426</ele>
        <time>2018-12-26T13:09:59Z</time>
      </trkpt>
      <trkpt lat="37.969195" lon="-1.215078">
        <ele>71.708</ele>
        <time>2018-12-26T13:10:19Z</time>
      </trkpt>
      <trkpt lat="37.969030" lon="-1.215261">
        <ele>72.529</ele>
        <time>2018-12-26T13:10:39Z</time>
      </trkpt>
      <trkpt lat="37.968814" lon="-1.215588">
        <ele>75.037</ele>
        <time>2018-12-26T13:10:59Z</time>
      </trkpt>
      <trkpt lat="37.968358" lon="-1.216258">
        <ele>74.222</ele>
        <time>2018-12-26T13:11:19Z</time>
      </trkpt>
      <trkpt lat="37.968062" lon="-1.216714">
        <ele>73.279</ele>
        <time>2018-12-26T13:11:39Z</time>
      </trkpt>
      <trkpt lat="37.967668" lon="-1.217342">
        <ele>73.198</ele>
        <time>2018-12-26T13:11:59Z</time>
      </trkpt>
      <trkpt lat="37.966801" lon="-1.218581">
        <ele>73.438</ele>
        <time>2018-12-26T13:12:19Z</time>
      </trkpt>
      <trkpt lat="37.965380" lon="-1.220722">
        <ele>74.718</ele>
        <time>2018-12-26T13:12:39Z</time>
      </trkpt>
      <trkpt lat="37.963959" lon="-1.222835">
        <ele>78.280</ele>
        <time>2018-12-26T13:12:59Z</time>
      </trkpt>
      <trkpt lat="37.963418" lon="-1.223693">
        <ele>75.311</ele>
        <time>2018-12-26T13:13:19Z</time>
      </trkpt>
      <trkpt lat="37.963342" lon="-1.223919">
        <ele>75.021</ele>
        <time>2018-12-26T13:13:39Z</time>
      </trkpt>
      <trkpt lat="37.963376" lon="-1.224021">
        <ele>75.203</ele>
        <time>2018-12-26T13:13:59Z</time>
      </trkpt>
      <trkpt lat="37.963473" lon="-1.224107">
        <ele>75.508</ele>
        <time>2018-12-26T13:14:19Z</time>
      </trkpt>
      <trkpt lat="37.963693" lon="-1.224015">
        <ele>76.374</ele>
        <time>2018-12-26T13:14:39Z</time>
      </trkpt>
      <trkpt lat="37.963858" lon="-1.223812">
        <ele>77.192</ele>
        <time>2018-12-26T13:14:59Z</time>
      </trkpt>
      <trkpt lat="37.964344" lon="-1.223592">
        <ele>77.877</ele>
        <time>2018-12-26T13:15:19Z</time>
      </trkpt>
      <trkpt lat="37.964958" lon="-1.223516">
        <ele>77.874</ele>
        <time>2018-12-26T13:15:39Z</time>
      </trkpt>
      <trkpt lat="37.966878" lon="-1.223613">
        <ele>88.593</ele>
        <time>2018-12-26T13:15:59Z</time>
      </trkpt>
      <trkpt lat="37.967279" lon="-1.223683">
        <ele>89.963</ele>
        <time>2018-12-26T13:16:19Z</time>
      </trkpt>
      <trkpt lat="37.968620" lon="-1.224139">
        <ele>84.063</ele>
        <time>2018-12-26T13:16:39Z</time>
      </trkpt>
      <trkpt lat="37.968802" lon="-1.224101">
        <ele>82.715</ele>
        <time>2018-12-26T13:16:59Z</time>
      </trkpt>
      <trkpt lat="37.968954" lon="-1.224251">
        <ele>82.318</ele>
        <time>2018-12-26T13:17:19Z</time>
      </trkpt>
      <trkpt lat="37.969690" lon="-1.224434">
        <ele>80.398</ele>
        <time>2018-12-26T13:17:39Z</time>
      </trkpt>
      <trkpt lat="37.969808" lon="-1.224337">
        <ele>79.317</ele>
        <time>2018-12-26T13:17:59Z</time>
      </trkpt>
      <trkpt lat="37.969994" lon="-1.224461">
        <ele>79.008</ele>
        <time>2018-12-26T13:18:19Z</time>
      </trkpt>
      <trkpt lat="37.970747" lon="-1.224375">
        <ele>74.324</ele>
        <time>2018-12-26T13:18:39Z</time>
      </trkpt>
      <trkpt lat="37.971297" lon="-1.224107">
        <ele>74.532</ele>
        <time>2018-12-26T13:18:59Z</time>
      </trkpt>
      <trkpt lat="37.971669" lon="-1.223844">
        <ele>74.717</ele>
        <time>2018-12-26T13:19:19Z</time>
      </trkpt>
      <trkpt lat="37.972037" lon="-1.223506">
        <ele>72.974</ele>
        <time>2018-12-26T13:19:39Z</time>
      </trkpt>
      <trkpt lat="37.972130" lon="-1.223238">
        <ele>73.253</ele>
        <time>2018-12-26T13:19:59Z</time>
      </trkpt>
      <trkpt lat="37.972392" lon="-1.223168">
        <ele>73.713</ele>
        <time>2018-12-26T13:20:19Z</time>
      </trkpt>
      <trkpt lat="37.972692" lon="-1.222996">
        <ele>72.953</ele>
        <time>2018-12-26T13:20:39Z</time>
      </trkpt>
      <trkpt lat="37.973132" lon="-1.222631">
        <ele>73.195</ele>
        <time>2018-12-26T13:20:59Z</time>
      </trkpt>
      <trkpt lat="37.973919" lon="-1.221902">
        <ele>69.752</ele>
        <time>2018-12-26T13:21:19Z</time>
      </trkpt>
      <trkpt lat="37.974253" lon="-1.221387">
        <ele>70.553</ele>
        <time>2018-12-26T13:21:39Z</time>
      </trkpt>
      <trkpt lat="37.974583" lon="-1.220657">
        <ele>70.808</ele>
        <time>2018-12-26T13:21:59Z</time>
      </trkpt>
      <trkpt lat="37.975077" lon="-1.219531">
        <ele>67.808</ele>
        <time>2018-12-26T13:22:19Z</time>
      </trkpt>
      <trkpt lat="37.975162" lon="-1.219203">
        <ele>67.798</ele>
        <time>2018-12-26T13:22:39Z</time>
      </trkpt>
      <trkpt lat="37.975154" lon="-1.219032">
        <ele>67.936</ele>
        <time>2018-12-26T13:22:59Z</time>
      </trkpt>
      <trkpt lat="37.975314" lon="-1.218892">
        <ele>67.931</ele>
        <time>2018-12-26T13:23:19Z</time>
      </trkpt>
      <trkpt lat="37.975627" lon="-1.218324">
        <ele>68.388</ele>
        <time>2018-12-26T13:23:39Z</time>
      </trkpt>
      <trkpt lat="37.976608" lon="-1.216221">
        <ele>62.897</ele>
        <time>2018-12-26T13:23:59Z</time>
      </trkpt>
      <trkpt lat="37.977230" lon="-1.214885">
        <ele>67.817</ele>
        <time>2018-12-26T13:24:19Z</time>
      </trkpt>
      <trkpt lat="37.977479" lon="-1.214182">
        <ele>63.937</ele>
        <time>2018-12-26T13:24:39Z</time>
      </trkpt>
      <trkpt lat="37.977462" lon="-1.213914">
        <ele>64.099</ele>
        <time>2018-12-26T13:24:59Z</time>
      </trkpt>
      <trkpt lat="37.977585" lon="-1.213710">
        <ele>61.364</ele>
        <time>2018-12-26T13:25:19Z</time>
      </trkpt>
      <trkpt lat="37.977665" lon="-1.213308">
        <ele>60.506</ele>
        <time>2018-12-26T13:25:39Z</time>
      </trkpt>
      <trkpt lat="37.977661" lon="-1.212503">
        <ele>58.616</ele>
        <time>2018-12-26T13:25:59Z</time>
      </trkpt>
      <trkpt lat="37.977505" lon="-1.211897">
        <ele>60.008</ele>
        <time>2018-12-26T13:26:19Z</time>
      </trkpt>
      <trkpt lat="37.977289" lon="-1.211334">
        <ele>58.629</ele>
        <time>2018-12-26T13:26:39Z</time>
      </trkpt>
      <trkpt lat="37.976782" lon="-1.210293">
        <ele>56.187</ele>
        <time>2018-12-26T13:26:59Z</time>
      </trkpt>
      <trkpt lat="37.976376" lon="-1.209564">
        <ele>54.292</ele>
        <time>2018-12-26T13:27:19Z</time>
      </trkpt>
      <trkpt lat="37.976042" lon="-1.209086">
        <ele>56.589</ele>
        <time>2018-12-26T13:27:39Z</time>
      </trkpt>
      <trkpt lat="37.975906" lon="-1.208990">
        <ele>56.988</ele>
        <time>2018-12-26T13:27:59Z</time>
      </trkpt>
      <trkpt lat="37.975881" lon="-1.208721">
        <ele>57.558</ele>
        <time>2018-12-26T13:28:19Z</time>
      </trkpt>
      <trkpt lat="37.975479" lon="-1.207986">
        <ele>59.818</ele>
        <time>2018-12-26T13:28:39Z</time>
      </trkpt>
      <trkpt lat="37.974680" lon="-1.206833">
        <ele>59.910</ele>
        <time>2018-12-26T13:28:59Z</time>
      </trkpt>
      <trkpt lat="37.974490" lon="-1.206790">
        <ele>59.581</ele>
        <time>2018-12-26T13:29:19Z</time>
      </trkpt>
      <trkpt lat="37.974422" lon="-1.206543">
        <ele>59.261</ele>
        <time>2018-12-26T13:29:39Z</time>
      </trkpt>
      <trkpt lat="37.973576" lon="-1.205685">
        <ele>59.517</ele>
        <time>2018-12-26T13:29:59Z</time>
      </trkpt>
      <trkpt lat="37.973576" lon="-1.205685">
        <ele>59.508</ele>
        <time>2018-12-26T13:30:19Z</time>
      </trkpt>
      <trkpt lat="37.973445" lon="-1.205648">
        <ele>59.521</ele>
        <time>2018-12-26T13:30:39Z</time>
      </trkpt>
      <trkpt lat="37.973331" lon="-1.205750">
        <ele>60.489</ele>
        <time>2018-12-26T13:30:59Z</time>
      </trkpt>
      <trkpt lat="37.973335" lon="-1.206093">
        <ele>62.984</ele>
        <time>2018-12-26T13:31:19Z</time>
      </trkpt>
      <trkpt lat="37.973356" lon="-1.207176">
        <ele>61.141</ele>
        <time>2018-12-26T13:31:39Z</time>
      </trkpt>
      <trkpt lat="37.973348" lon="-1.207606">
        <ele>61.490</ele>
        <time>2018-12-26T13:31:59Z</time>
      </trkpt>
      <trkpt lat="37.973259" lon="-1.207826">
        <ele>62.880</ele>
        <time>2018-12-26T13:32:19Z</time>
      </trkpt>
      <trkpt lat="37.972946" lon="-1.208351">
        <ele>67.110</ele>
        <time>2018-12-26T13:32:39Z</time>
      </trkpt>
      <trkpt lat="37.972498" lon="-1.209129">
        <ele>70.032</ele>
        <time>2018-12-26T13:32:59Z</time>
      </trkpt>
      <trkpt lat="37.972291" lon="-1.209505">
        <ele>70.531</ele>
        <time>2018-12-26T13:33:19Z</time>
      </trkpt>
      <trkpt lat="37.971821" lon="-1.210046">
        <ele>71.661</ele>
        <time>2018-12-26T13:33:39Z</time>
      </trkpt>
      <trkpt lat="37.971398" lon="-1.210728">
        <ele>71.607</ele>
        <time>2018-12-26T13:33:59Z</time>
      </trkpt>
      <trkpt lat="37.970811" lon="-1.211672">
        <ele>73.108</ele>
        <time>2018-12-26T13:34:19Z</time>
      </trkpt>
      <trkpt lat="37.970531" lon="-1.212246">
        <ele>73.056</ele>
        <time>2018-12-26T13:34:39Z</time>
      </trkpt>
      <trkpt lat="37.970261" lon="-1.212847">
        <ele>71.054</ele>
        <time>2018-12-26T13:34:59Z</time>
      </trkpt>
      <trkpt lat="37.969817" lon="-1.213807">
        <ele>73.159</ele>
        <time>2018-12-26T13:35:19Z</time>
      </trkpt>
      <trkpt lat="37.963215" lon="-1.224139">
        <ele>75.417</ele>
        <time>2018-12-26T13:09:48Z</time>
      </trkpt>
      <trkpt lat="37.962297" lon="-1.223511">
        <ele>71.987</ele>
        <time>2018-12-26T13:10:08Z</time>
      </trkpt>
      <trkpt lat="37.960703" lon="-1.222792">
        <ele>70.415</ele>
        <time>2018-12-26T13:10:28Z</time>
      </trkpt>
      <trkpt lat="37.959227" lon="-1.221178">
        <ele>63.208</ele>
        <time>2018-12-26T13:10:48Z</time>
      </trkpt>
      <trkpt lat="37.958800" lon="-1.221998">
        <ele>66.114</ele>
        <time>2018-12-26T13:11:08Z</time>
      </trkpt>
      <trkpt lat="37.958558" lon="-1.221982">
        <ele>65.612</ele>
        <time>2018-12-26T13:11:28Z</time>
      </trkpt>
      <trkpt lat="37.940276" lon="-1.207868">
        <ele>66.057</ele>
        <time>2018-12-26T13:12:08Z</time>
      </trkpt>
      <trkpt lat="37.937923" lon="-1.206442">
        <ele>66.084</ele>
        <time>2018-12-26T13:12:48Z</time>
      </trkpt>
      <trkpt lat="37.936451" lon="-1.206511">
        <ele>66.093</ele>
        <time>2018-12-26T13:13:08Z</time>
      </trkpt>
      <trkpt lat="37.936223" lon="-1.206844">
        <ele>66.941</ele>
        <time>2018-12-26T13:13:28Z</time>
      </trkpt>
      <trkpt lat="37.936087" lon="-1.208603">
        <ele>69.011</ele>
        <time>2018-12-26T13:13:48Z</time>
      </trkpt>
      <trkpt lat="37.935783" lon="-1.210116">
        <ele>65.469</ele>
        <time>2018-12-26T13:14:08Z</time>
      </trkpt>
      <trkpt lat="37.932707" lon="-1.217127">
        <ele>72.926</ele>
        <time>2018-12-26T13:14:28Z</time>
      </trkpt>
      <trkpt lat="37.930858" lon="-1.223259">
        <ele>71.947</ele>
        <time>2018-12-26T13:14:48Z</time>
      </trkpt>
      <trkpt lat="37.930769" lon="-1.224155">
        <ele>71.711</ele>
        <time>2018-12-26T13:15:08Z</time>
      </trkpt>
      <trkpt lat="37.930574" lon="-1.224214">
        <ele>74.008</ele>
        <time>2018-12-26T13:15:28Z</time>
      </trkpt>
      <trkpt lat="37.930210" lon="-1.223672">
        <ele>74.675</ele>
        <time>2018-12-26T13:15:48Z</time>
      </trkpt>
      <trkpt lat="37.928023" lon="-1.222095">
        <ele>77.963</ele>
        <time>2018-12-26T13:16:08Z</time>
      </trkpt>
      <trkpt lat="37.927782" lon="-1.222213">
        <ele>78.078</ele>
        <time>2018-12-26T13:16:28Z</time>
      </trkpt>
      <trkpt lat="37.927236" lon="-1.223366">
        <ele>78.845</ele>
        <time>2018-12-26T13:16:48Z</time>
      </trkpt>
      <trkpt lat="37.925416" lon="-1.225308">
        <ele>81.674</ele>
        <time>2018-12-26T13:17:28Z</time>
      </trkpt>
      <trkpt lat="37.924126" lon="-1.228688">
        <ele>81.022</ele>
        <time>2018-12-26T13:18:08Z</time>
      </trkpt>
      <trkpt lat="37.924079" lon="-1.231890">
        <ele>84.552</ele>
        <time>2018-12-26T13:18:28Z</time>
      </trkpt>
      <trkpt lat="37.923542" lon="-1.234154">
        <ele>88.080</ele>
        <time>2018-12-26T13:18:48Z</time>
      </trkpt>
      <trkpt lat="37.920482" lon="-1.239433">
        <ele>83.749</ele>
        <time>2018-12-26T13:19:08Z</time>
      </trkpt>
      <trkpt lat="37.918692" lon="-1.242920">
        <ele>85.402</ele>
        <time>2018-12-26T13:19:28Z</time>
      </trkpt>
      <trkpt lat="37.916991" lon="-1.248429">
        <ele>83.822</ele>
        <time>2018-12-26T13:20:08Z</time>
      </trkpt>
      <trkpt lat="37.914515" lon="-1.252978">
        <ele>89.508</ele>
        <time>2018-12-26T13:20:28Z</time>
      </trkpt>
      <trkpt lat="37.913465" lon="-1.255596">
        <ele>92.737</ele>
        <time>2018-12-26T13:20:48Z</time>
      </trkpt>
      <trkpt lat="37.912323" lon="-1.257672">
        <ele>98.215</ele>
        <time>2018-12-26T13:21:08Z</time>
      </trkpt>
      <trkpt lat="37.912251" lon="-1.263084">
        <ele>98.980</ele>
        <time>2018-12-26T13:21:28Z</time>
      </trkpt>
      <trkpt lat="37.911210" lon="-1.266062">
        <ele>97.847</ele>
        <time>2018-12-26T13:22:08Z</time>
      </trkpt>
      <trkpt lat="37.910215" lon="-1.266931">
        <ele>98.036</ele>
        <time>2018-12-26T13:22:28Z</time>
      </trkpt>
      <trkpt lat="37.908708" lon="-1.268937">
        <ele>97.274</ele>
        <time>2018-12-26T13:22:48Z</time>
      </trkpt>
      <trkpt lat="37.908086" lon="-1.270139">
        <ele>97.864</ele>
        <time>2018-12-26T13:23:08Z</time>
      </trkpt>
      <trkpt lat="37.907942" lon="-1.270943">
        <ele>95.912</ele>
        <time>2018-12-26T13:23:28Z</time>
      </trkpt>
      <trkpt lat="37.907159" lon="-1.271737">
        <ele>98.059</ele>
        <time>2018-12-26T13:23:48Z</time>
      </trkpt>
      <trkpt lat="37.907379" lon="-1.273840">
        <ele>93.003</ele>
        <time>2018-12-26T13:24:08Z</time>
      </trkpt>
      <trkpt lat="37.906969" lon="-1.275128">
        <ele>97.223</ele>
        <time>2018-12-26T13:24:28Z</time>
      </trkpt>
      <trkpt lat="37.906253" lon="-1.275927">
        <ele>98.008</ele>
        <time>2018-12-26T13:24:48Z</time>
      </trkpt>
      <trkpt lat="37.905441" lon="-1.277692">
        <ele>99.618</ele>
        <time>2018-12-26T13:25:08Z</time>
      </trkpt>
      <trkpt lat="37.903032" lon="-1.279945">
        <ele>101.896</ele>
        <time>2018-12-26T13:25:28Z</time>
      </trkpt>
      <trkpt lat="37.900996" lon="-1.282525">
        <ele>106.431</ele>
        <time>2018-12-26T13:25:48Z</time>
      </trkpt>
      <trkpt lat="37.900074" lon="-1.284006">
        <ele>107.568</ele>
        <time>2018-12-26T13:26:08Z</time>
      </trkpt>
      <trkpt lat="37.896171" lon="-1.286988">
        <ele>109.437</ele>
        <time>2018-12-26T13:27:08Z</time>
      </trkpt>
      <trkpt lat="37.893643" lon="-1.287852">
        <ele>120.315</ele>
        <time>2018-12-26T13:27:28Z</time>
      </trkpt>
      <trkpt lat="37.893224" lon="-1.287836">
        <ele>119.825</ele>
        <time>2018-12-26T13:27:48Z</time>
      </trkpt>
      <trkpt lat="37.892335" lon="-1.287267">
        <ele>122.243</ele>
        <time>2018-12-26T13:28:08Z</time>
      </trkpt>
      <trkpt lat="37.891315" lon="-1.287085">
        <ele>128.911</ele>
        <time>2018-12-26T13:28:28Z</time>
      </trkpt>
      <trkpt lat="37.888779" lon="-1.288168">
        <ele>147.021</ele>
        <time>2018-12-26T13:28:48Z</time>
      </trkpt>
      <trkpt lat="37.886785" lon="-1.288780">
        <ele>150.803</ele>
        <time>2018-12-26T13:29:28Z</time>
      </trkpt>
      <trkpt lat="37.886048" lon="-1.289392">
        <ele>153.508</ele>
        <time>2018-12-26T13:29:48Z</time>
      </trkpt>
      <trkpt lat="37.884799" lon="-1.291999">
        <ele>154.274</ele>
        <time>2018-12-26T13:30:08Z</time>
      </trkpt>
      <trkpt lat="37.882128" lon="-1.295630">
        <ele>162.982</ele>
        <time>2018-12-26T13:30:28Z</time>
      </trkpt>
      <trkpt lat="37.880557" lon="-1.297138">
        <ele>170.387</ele>
        <time>2018-12-26T13:30:48Z</time>
      </trkpt>
      <trkpt lat="37.877606" lon="-1.300705">
        <ele>173.654</ele>
        <time>2018-12-26T13:31:08Z</time>
      </trkpt>
      <trkpt lat="37.876272" lon="-1.303779">
        <ele>169.683</ele>
        <time>2018-12-26T13:31:28Z</time>
      </trkpt>
      <trkpt lat="37.873464" lon="-1.306343">
        <ele>164.331</ele>
        <time>2018-12-26T13:31:48Z</time>
      </trkpt>
      <trkpt lat="37.871584" lon="-1.312957">
        <ele>179.541</ele>
        <time>2018-12-26T13:32:08Z</time>
      </trkpt>
      <trkpt lat="37.869200" lon="-1.317517">
        <ele>178.869</ele>
        <time>2018-12-26T13:32:28Z</time>
      </trkpt>
      <trkpt lat="37.867735" lon="-1.321052">
        <ele>168.342</ele>
        <time>2018-12-26T13:32:48Z</time>
      </trkpt>
      <trkpt lat="37.867011" lon="-1.325274">
        <ele>160.522</ele>
        <time>2018-12-26T13:33:08Z</time>
      </trkpt>
      <trkpt lat="37.864267" lon="-1.331937">
        <ele>156.014</ele>
        <time>2018-12-26T13:33:48Z</time>
      </trkpt>
      <trkpt lat="37.861755" lon="-1.336502">
        <ele>156.008</ele>
        <time>2018-12-26T13:34:28Z</time>
      </trkpt>
      <trkpt lat="37.859078" lon="-1.339962">
        <ele>149.697</ele>
        <time>2018-12-26T13:34:48Z</time>
      </trkpt>
      <trkpt lat="37.852429" lon="-1.346136">
        <ele>150.655</ele>
        <time>2018-12-26T13:35:08Z</time>
      </trkpt>
      <trkpt lat="37.842123" lon="-1.351973">
        <ele>149.780</ele>
        <time>2018-12-26T13:35:48Z</time>
      </trkpt>
      <trkpt lat="37.836725" lon="-1.356795">
        <ele>156.147</ele>
        <time>2018-12-26T13:36:08Z</time>
      </trkpt>
      <trkpt lat="37.828853" lon="-1.361146">
        <ele>159.166</ele>
        <time>2018-12-26T13:36:28Z</time>
      </trkpt>
      <trkpt lat="37.822752" lon="-1.364751">
        <ele>164.914</ele>
        <time>2018-12-26T13:36:48Z</time>
      </trkpt>
      <trkpt lat="37.825023" lon="-1.371145">
        <ele>156.054</ele>
        <time>2018-12-26T13:37:08Z</time>
      </trkpt>
      <trkpt lat="37.826311" lon="-1.377819">
        <ele>156.582</ele>
        <time>2018-12-26T13:37:28Z</time>
      </trkpt>
      <trkpt lat="37.828192" lon="-1.379857">
        <ele>146.886</ele>
        <time>2018-12-26T13:37:48Z</time>
      </trkpt>
      <trkpt lat="37.828938" lon="-1.381702">
        <ele>155.260</ele>
        <time>2018-12-26T13:38:08Z</time>
      </trkpt>
      <trkpt lat="37.829853" lon="-1.383119">
        <ele>152.526</ele>
        <time>2018-12-26T13:38:28Z</time>
      </trkpt>
      <trkpt lat="37.840089" lon="-1.395307">
        <ele>155.208</ele>
        <time>2018-12-26T13:38:48Z</time>
      </trkpt>
      <trkpt lat="37.841428" lon="-1.397345">
        <ele>153.551</ele>
        <time>2018-12-26T13:39:08Z</time>
      </trkpt>
      <trkpt lat="37.841610" lon="-1.398863">
        <ele>153.069</ele>
        <time>2018-12-26T13:39:28Z</time>
      </trkpt>
      <trkpt lat="37.841864" lon="-1.399131">
        <ele>153.894</ele>
        <time>2018-12-26T13:39:48Z</time>
      </trkpt>
      <trkpt lat="37.842826" lon="-1.399292">
        <ele>151.311</ele>
        <time>2018-12-26T13:40:08Z</time>
      </trkpt>
      <trkpt lat="37.844194" lon="-1.401299">
        <ele>154.760</ele>
        <time>2018-12-26T13:40:28Z</time>
      </trkpt>
      <trkpt lat="37.844707" lon="-1.403874">
        <ele>157.118</ele>
        <time>2018-12-26T13:40:48Z</time>
      </trkpt>
      <trkpt lat="37.848731" lon="-1.410198">
        <ele>166.818</ele>
        <time>2018-12-26T13:41:08Z</time>
      </trkpt>
      <trkpt lat="37.849633" lon="-1.411319">
        <ele>167.396</ele>
        <time>2018-12-26T13:41:28Z</time>
      </trkpt>
      <trkpt lat="37.849756" lon="-1.412011">
        <ele>169.288</ele>
        <time>2018-12-26T13:41:48Z</time>
      </trkpt>
      <trkpt lat="37.849506" lon="-1.413519">
        <ele>171.224</ele>
        <time>2018-12-26T13:42:08Z</time>
      </trkpt>
      <trkpt lat="37.848697" lon="-1.415214">
        <ele>171.126</ele>
        <time>2018-12-26T13:42:28Z</time>
      </trkpt>
      <trkpt lat="37.849307" lon="-1.415707">
        <ele>174.508</ele>
        <time>2018-12-26T13:42:48Z</time>
      </trkpt>
      <trkpt lat="37.848142" lon="-1.417059">
        <ele>176.021</ele>
        <time>2018-12-26T13:43:08Z</time>
      </trkpt>
      <trkpt lat="37.851238" lon="-1.422670">
        <ele>200.389</ele>
        <time>2018-12-26T13:43:28Z</time>
      </trkpt>
      <trkpt lat="37.851078" lon="-1.423309">
        <ele>201.714</ele>
        <time>2018-12-26T13:43:48Z</time>
      </trkpt>
      <trkpt lat="37.850989" lon="-1.427193">
        <ele>206.091</ele>
        <time>2018-12-26T13:44:08Z</time>
      </trkpt>
      <trkpt lat="37.851857" lon="-1.435212">
        <ele>212.090</ele>
        <time>2018-12-26T13:44:28Z</time>
      </trkpt>
      <trkpt lat="37.849828" lon="-1.442776">
        <ele>220.828</ele>
        <time>2018-12-26T13:44:48Z</time>
      </trkpt>
      <trkpt lat="37.848833" lon="-1.444949">
        <ele>228.178</ele>
        <time>2018-12-26T13:45:08Z</time>
      </trkpt>
      <trkpt lat="37.848311" lon="-1.451885">
        <ele>253.556</ele>
        <time>2018-12-26T13:45:28Z</time>
      </trkpt>
      <trkpt lat="37.847998" lon="-1.453505">
        <ele>258.248</ele>
        <time>2018-12-26T13:45:48Z</time>
      </trkpt>
      <trkpt lat="37.848621" lon="-1.454262">
        <ele>255.861</ele>
        <time>2018-12-26T13:46:08Z</time>
      </trkpt>
      <trkpt lat="37.849866" lon="-1.454937">
        <ele>262.817</ele>
        <time>2018-12-26T13:46:28Z</time>
      </trkpt>
      <trkpt lat="37.851166" lon="-1.454750">
        <ele>276.408</ele>
        <time>2018-12-26T13:46:48Z</time>
      </trkpt>
      <trkpt lat="37.852552" lon="-1.455104">
        <ele>273.467</ele>
        <time>2018-12-26T13:47:28Z</time>
      </trkpt>
      <trkpt lat="37.853149" lon="-1.454755">
        <ele>279.045</ele>
        <time>2018-12-26T13:47:48Z</time>
      </trkpt>
      <trkpt lat="37.854805" lon="-1.455292">
        <ele>295.630</ele>
        <time>2018-12-26T13:48:08Z</time>
      </trkpt>
      <trkpt lat="37.855377" lon="-1.454921">
        <ele>297.927</ele>
        <time>2018-12-26T13:48:28Z</time>
      </trkpt>
      <trkpt lat="37.857727" lon="-1.456279">
        <ele>310.966</ele>
        <time>2018-12-26T13:48:48Z</time>
      </trkpt>
      <trkpt lat="37.858134" lon="-1.455908">
        <ele>325.564</ele>
        <time>2018-12-26T13:49:08Z</time>
      </trkpt>
      <trkpt lat="37.858765" lon="-1.456118">
        <ele>321.144</ele>
        <time>2018-12-26T13:49:48Z</time>
      </trkpt>
      <trkpt lat="37.859451" lon="-1.455925">
        <ele>329.142</ele>
        <time>2018-12-26T13:50:08Z</time>
      </trkpt>
      <trkpt lat="37.860358" lon="-1.456611">
        <ele>325.151</ele>
        <time>2018-12-26T13:50:28Z</time>
      </trkpt>
      <trkpt lat="37.861912" lon="-1.456617">
        <ele>328.101</ele>
        <time>2018-12-26T13:50:48Z</time>
      </trkpt>
      <trkpt lat="37.862573" lon="-1.456386">
        <ele>335.611</ele>
        <time>2018-12-26T13:51:08Z</time>
      </trkpt>
      <trkpt lat="37.862822" lon="-1.456713">
        <ele>340.608</ele>
        <time>2018-12-26T13:51:28Z</time>
      </trkpt>
      <trkpt lat="37.862484" lon="-1.458301">
        <ele>324.948</ele>
        <time>2018-12-26T13:51:48Z</time>
      </trkpt>
      <trkpt lat="37.862776" lon="-1.458805">
        <ele>332.116</ele>
        <time>2018-12-26T13:52:08Z</time>
      </trkpt>
      <trkpt lat="37.863301" lon="-1.458768">
        <ele>338.241</ele>
        <time>2018-12-26T13:52:48Z</time>
      </trkpt>
      <trkpt lat="37.864123" lon="-1.457652">
        <ele>353.988</ele>
        <time>2018-12-26T13:53:08Z</time>
      </trkpt>
      <trkpt lat="37.864288" lon="-1.457646">
        <ele>356.237</ele>
        <time>2018-12-26T13:53:28Z</time>
      </trkpt>
      <trkpt lat="37.864660" lon="-1.458279">
        <ele>346.495</ele>
        <time>2018-12-26T13:53:48Z</time>
      </trkpt>
      <trkpt lat="37.865135" lon="-1.458355">
        <ele>357.985</ele>
        <time>2018-12-26T13:54:08Z</time>
      </trkpt>
      <trkpt lat="37.865922" lon="-1.458966">
        <ele>358.783</ele>
        <time>2018-12-26T13:54:28Z</time>
      </trkpt>
      <trkpt lat="37.866511" lon="-1.458993">
        <ele>367.758</ele>
        <time>2018-12-26T13:54:48Z</time>
      </trkpt>
      <trkpt lat="37.867379" lon="-1.458086">
        <ele>375.352</ele>
        <time>2018-12-26T13:55:08Z</time>
      </trkpt>
      <trkpt lat="37.867544" lon="-1.457351">
        <ele>380.217</ele>
        <time>2018-12-26T13:55:28Z</time>
      </trkpt>
      <trkpt lat="37.869069" lon="-1.454819">
        <ele>394.808</ele>
        <time>2018-12-26T13:55:48Z</time>
      </trkpt>
      <trkpt lat="37.869188" lon="-1.453586">
        <ele>392.738</ele>
        <time>2018-12-26T13:56:08Z</time>
      </trkpt>
      <trkpt lat="37.870483" lon="-1.450142">
        <ele>406.246</ele>
        <time>2018-12-26T13:56:48Z</time>
      </trkpt>
      <trkpt lat="37.870754" lon="-1.449895">
        <ele>405.381</ele>
        <time>2018-12-26T13:57:08Z</time>
      </trkpt>
      <trkpt lat="37.871669" lon="-1.447105">
        <ele>407.818</ele>
        <time>2018-12-26T13:57:48Z</time>
      </trkpt>
      <trkpt lat="37.872643" lon="-1.447288">
        <ele>412.457</ele>
        <time>2018-12-26T13:58:08Z</time>
      </trkpt>
      <trkpt lat="37.872889" lon="-1.447148">
        <ele>419.255</ele>
        <time>2018-12-26T13:58:28Z</time>
      </trkpt>
      <trkpt lat="37.873134" lon="-1.446183">
        <ele>414.535</ele>
        <time>2018-12-26T13:58:48Z</time>
      </trkpt>
      <trkpt lat="37.873439" lon="-1.445839">
        <ele>417.043</ele>
        <time>2018-12-26T13:59:08Z</time>
      </trkpt>
      <trkpt lat="37.876335" lon="-1.447159">
        <ele>421.218</ele>
        <time>2018-12-26T13:59:28Z</time>
      </trkpt>
      <trkpt lat="37.877784" lon="-1.446730">
        <ele>426.498</ele>
        <time>2018-12-26T13:59:48Z</time>
      </trkpt>
      <trkpt lat="37.878063" lon="-1.446966">
        <ele>427.317</ele>
        <time>2018-12-26T14:00:08Z</time>
      </trkpt>
      <trkpt lat="37.877724" lon="-1.447631">
        <ele>435.708</ele>
        <time>2018-12-26T14:00:28Z</time>
      </trkpt>
      <trkpt lat="37.877885" lon="-1.447964">
        <ele>439.634</ele>
        <time>2018-12-26T14:00:48Z</time>
      </trkpt>
      <trkpt lat="37.877851" lon="-1.448683">
        <ele>448.182</ele>
        <time>2018-12-26T14:01:08Z</time>
      </trkpt>
      <trkpt lat="37.878165" lon="-1.450056">
        <ele>461.077</ele>
        <time>2018-12-26T14:01:28Z</time>
      </trkpt>
      <trkpt lat="37.879181" lon="-1.452245">
        <ele>471.364</ele>
        <time>2018-12-26T14:01:48Z</time>
      </trkpt>
      <trkpt lat="37.880134" lon="-1.453358">
        <ele>479.713</ele>
        <time>2018-12-26T14:02:08Z</time>
      </trkpt>
      <trkpt lat="37.880663" lon="-1.454272">
        <ele>484.281</ele>
        <time>2018-12-26T14:02:28Z</time>
      </trkpt>
      <trkpt lat="37.882092" lon="-1.458164">
        <ele>514.691</ele>
        <time>2018-12-26T14:02:48Z</time>
      </trkpt>
      <trkpt lat="37.882062" lon="-1.458805">
        <ele>525.559</ele>
        <time>2018-12-26T14:03:08Z</time>
      </trkpt>
      <trkpt lat="37.881670" lon="-1.458738">
        <ele>525.753</ele>
        <time>2018-12-26T14:03:28Z</time>
      </trkpt>
      <trkpt lat="37.881340" lon="-1.459307">
        <ele>532.704</ele>
        <time>2018-12-26T14:04:08Z</time>
      </trkpt>
      <trkpt lat="37.881656" lon="-1.459036">
        <ele>531.514</ele>
        <time>2018-12-26T14:04:28Z</time>
      </trkpt>
      <trkpt lat="37.881846" lon="-1.459143">
        <ele>532.908</ele>
        <time>2018-12-26T14:04:48Z</time>
      </trkpt>
      <trkpt lat="37.881364" lon="-1.459570">
        <ele>538.298</ele>
        <time>2018-12-26T14:05:08Z</time>
      </trkpt>
      <trkpt lat="37.880760" lon="-1.460664">
        <ele>548.276</ele>
        <time>2018-12-26T14:05:28Z</time>
      </trkpt>
      <trkpt lat="37.881662" lon="-1.460036">
        <ele>550.981</ele>
        <time>2018-12-26T14:06:08Z</time>
      </trkpt>
      <trkpt lat="37.881791" lon="-1.460264">
        <ele>557.178</ele>
        <time>2018-12-26T14:06:28Z</time>
      </trkpt>
      <trkpt lat="37.881277" lon="-1.460468">
        <ele>557.877</ele>
        <time>2018-12-26T14:06:48Z</time>
      </trkpt>
      <trkpt lat="37.880546" lon="-1.461648">
        <ele>567.565</ele>
        <time>2018-12-26T14:07:08Z</time>
      </trkpt>
      <trkpt lat="37.880699" lon="-1.461729">
        <ele>573.295</ele>
        <time>2018-12-26T14:07:28Z</time>
      </trkpt>
      <trkpt lat="37.881467" lon="-1.460956">
        <ele>577.943</ele>
        <time>2018-12-26T14:07:48Z</time>
      </trkpt>
      <trkpt lat="37.881969" lon="-1.461332">
        <ele>595.315</ele>
        <time>2018-12-26T14:08:08Z</time>
      </trkpt>
      <trkpt lat="37.882515" lon="-1.461243">
        <ele>591.965</ele>
        <time>2018-12-26T14:08:28Z</time>
      </trkpt>
      <trkpt lat="37.882837" lon="-1.461608">
        <ele>589.511</ele>
        <time>2018-12-26T14:09:08Z</time>
      </trkpt>
      <trkpt lat="37.882674" lon="-1.462198">
        <ele>599.808</ele>
        <time>2018-12-26T14:09:28Z</time>
      </trkpt>
      <trkpt lat="37.882655" lon="-1.461664">
        <ele>595.564</ele>
        <time>2018-12-26T14:09:48Z</time>
      </trkpt>
      <trkpt lat="37.882473" lon="-1.461536">
        <ele>598.912</ele>
        <time>2018-12-26T14:10:08Z</time>
      </trkpt>
      <trkpt lat="37.881692" lon="-1.461879">
        <ele>603.767</ele>
        <time>2018-12-26T14:10:28Z</time>
      </trkpt>
      <trkpt lat="37.881719" lon="-1.462059">
        <ele>606.154</ele>
        <time>2018-12-26T14:10:48Z</time>
      </trkpt>
      <trkpt lat="37.882339" lon="-1.462075">
        <ele>608.413</ele>
        <time>2018-12-26T14:11:08Z</time>
      </trkpt>
      <trkpt lat="37.882157" lon="-1.463451">
        <ele>623.071</ele>
        <time>2018-12-26T14:11:28Z</time>
      </trkpt>
      <trkpt lat="37.882344" lon="-1.463692">
        <ele>625.761</ele>
        <time>2018-12-26T14:11:48Z</time>
      </trkpt>
      <trkpt lat="37.883307" lon="-1.463963">
        <ele>624.319</ele>
        <time>2018-12-26T14:12:08Z</time>
      </trkpt>
      <trkpt lat="37.884014" lon="-1.464990">
        <ele>639.268</ele>
        <time>2018-12-26T14:12:28Z</time>
      </trkpt>
      <trkpt lat="37.884158" lon="-1.466774">
        <ele>643.842</ele>
        <time>2018-12-26T14:12:48Z</time>
      </trkpt>
      <trkpt lat="37.883720" lon="-1.468032">
        <ele>638.126</ele>
        <time>2018-12-26T14:13:08Z</time>
      </trkpt>
      <trkpt lat="37.884622" lon="-1.469733">
        <ele>649.908</ele>
        <time>2018-12-26T14:13:28Z</time>
      </trkpt>
      <trkpt lat="37.885096" lon="-1.471489">
        <ele>662.619</ele>
        <time>2018-12-26T14:13:48Z</time>
      </trkpt>
      <trkpt lat="37.885134" lon="-1.474142">
        <ele>667.037</ele>
        <time>2018-12-26T14:14:08Z</time>
      </trkpt>
      <trkpt lat="37.884833" lon="-1.476194">
        <ele>674.672</ele>
        <time>2018-12-26T14:14:28Z</time>
      </trkpt>
      <trkpt lat="37.884482" lon="-1.476953">
        <ele>678.999</ele>
        <time>2018-12-26T14:14:48Z</time>
      </trkpt>
      <trkpt lat="37.883337" lon="-1.478058">
        <ele>687.958</ele>
        <time>2018-12-26T14:15:08Z</time>
      </trkpt>
      <trkpt lat="37.882659" lon="-1.478377">
        <ele>694.066</ele>
        <time>2018-12-26T14:15:28Z</time>
      </trkpt>
      <trkpt lat="37.881891" lon="-1.479324">
        <ele>690.036</ele>
        <time>2018-12-26T14:15:48Z</time>
      </trkpt>
      <trkpt lat="37.881304" lon="-1.481076">
        <ele>683.254</ele>
        <time>2018-12-26T14:16:28Z</time>
      </trkpt>
      <trkpt lat="37.881370" lon="-1.483358">
        <ele>695.188</ele>
        <time>2018-12-26T14:16:48Z</time>
      </trkpt>
      <trkpt lat="37.880957" lon="-1.483897">
        <ele>699.524</ele>
        <time>2018-12-26T14:17:28Z</time>
      </trkpt>
      <trkpt lat="37.879573" lon="-1.483838">
        <ele>713.326</ele>
        <time>2018-12-26T14:17:48Z</time>
      </trkpt>
      <trkpt lat="37.878599" lon="-1.485206">
        <ele>710.508</ele>
        <time>2018-12-26T14:18:08Z</time>
      </trkpt>
      <trkpt lat="37.878444" lon="-1.486628">
        <ele>722.221</ele>
        <time>2018-12-26T14:18:28Z</time>
      </trkpt>
      <trkpt lat="37.878131" lon="-1.487580">
        <ele>726.869</ele>
        <time>2018-12-26T14:18:48Z</time>
      </trkpt>
      <trkpt lat="37.878220" lon="-1.488548">
        <ele>732.164</ele>
        <time>2018-12-26T14:19:08Z</time>
      </trkpt>
      <trkpt lat="37.878719" lon="-1.489664">
        <ele>734.021</ele>
        <time>2018-12-26T14:19:28Z</time>
      </trkpt>
      <trkpt lat="37.878654" lon="-1.490053">
        <ele>736.150</ele>
        <time>2018-12-26T14:19:48Z</time>
      </trkpt>
      <trkpt lat="37.876880" lon="-1.491788">
        <ele>747.548</ele>
        <time>2018-12-26T14:20:08Z</time>
      </trkpt>
      <trkpt lat="37.876299" lon="-1.492113">
        <ele>751.828</ele>
        <time>2018-12-26T14:20:28Z</time>
      </trkpt>
      <trkpt lat="37.876037" lon="-1.493996">
        <ele>764.086</ele>
        <time>2018-12-26T14:20:48Z</time>
      </trkpt>
      <trkpt lat="37.875150" lon="-1.494929">
        <ele>770.152</ele>
        <time>2018-12-26T14:21:28Z</time>
      </trkpt>
      <trkpt lat="37.874978" lon="-1.494492">
        <ele>764.053</ele>
        <time>2018-12-26T14:21:48Z</time>
      </trkpt>
      <trkpt lat="37.874807" lon="-1.494452">
        <ele>759.908</ele>
        <time>2018-12-26T14:22:08Z</time>
      </trkpt>
      <trkpt lat="37.874415" lon="-1.494889">
        <ele>753.008</ele>
        <time>2018-12-26T14:22:28Z</time>
      </trkpt>
      <trkpt lat="37.874856" lon="-1.496423">
        <ele>758.368</ele>
        <time>2018-12-26T14:23:08Z</time>
      </trkpt>
      <trkpt lat="37.874441" lon="-1.497220">
        <ele>754.926</ele>
        <time>2018-12-26T14:23:28Z</time>
      </trkpt>
      <trkpt lat="37.874083" lon="-1.497408">
        <ele>755.271</ele>
        <time>2018-12-26T14:23:48Z</time>
      </trkpt>
      <trkpt lat="37.872817" lon="-1.497526">
        <ele>738.998</ele>
        <time>2018-12-26T14:24:28Z</time>
      </trkpt>
      <trkpt lat="37.872275" lon="-1.497893">
        <ele>741.777</ele>
        <time>2018-12-26T14:24:48Z</time>
      </trkpt>
      <trkpt lat="37.871847" lon="-1.497603">
        <ele>727.565</ele>
        <time>2018-12-26T14:25:08Z</time>
      </trkpt>
      <trkpt lat="37.871406" lon="-1.498124">
        <ele>722.175</ele>
        <time>2018-12-26T14:25:28Z</time>
      </trkpt>
      <trkpt lat="37.871163" lon="-1.500457">
        <ele>726.463</ele>
        <time>2018-12-26T14:25:48Z</time>
      </trkpt>
      <trkpt lat="37.870293" lon="-1.501769">
        <ele>715.083</ele>
        <time>2018-12-26T14:26:08Z</time>
      </trkpt>
      <trkpt lat="37.869740" lon="-1.503252">
        <ele>706.725</ele>
        <time>2018-12-26T14:26:28Z</time>
      </trkpt>
      <trkpt lat="37.868609" lon="-1.504304">
        <ele>690.417</ele>
        <time>2018-12-26T14:26:48Z</time>
      </trkpt>
      <trkpt lat="37.868334" lon="-1.505693">
        <ele>687.008</ele>
        <time>2018-12-26T14:27:08Z</time>
      </trkpt>
      <trkpt lat="37.868798" lon="-1.507463">
        <ele>695.321</ele>
        <time>2018-12-26T14:27:28Z</time>
      </trkpt>
      <trkpt lat="37.869044" lon="-1.510027">
        <ele>701.649</ele>
        <time>2018-12-26T14:27:48Z</time>
      </trkpt>
      <trkpt lat="37.868021" lon="-1.511398">
        <ele>712.844</ele>
        <time>2018-12-26T14:28:28Z</time>
      </trkpt>
      <trkpt lat="37.867674" lon="-1.513335">
        <ele>712.541</ele>
        <time>2018-12-26T14:29:08Z</time>
      </trkpt>
      <trkpt lat="37.868368" lon="-1.514820">
        <ele>723.030</ele>
        <time>2018-12-26T14:29:28Z</time>
      </trkpt>
      <trkpt lat="37.868512" lon="-1.515724">
        <ele>726.018</ele>
        <time>2018-12-26T14:29:48Z</time>
      </trkpt>
      <trkpt lat="37.868868" lon="-1.515649">
        <ele>727.988</ele>
        <time>2018-12-26T14:30:08Z</time>
      </trkpt>
      <trkpt lat="37.868292" lon="-1.516985">
        <ele>739.866</ele>
        <time>2018-12-26T14:30:28Z</time>
      </trkpt>
      <trkpt lat="37.868040" lon="-1.519201">
        <ele>755.415</ele>
        <time>2018-12-26T14:30:48Z</time>
      </trkpt>
      <trkpt lat="37.868186" lon="-1.519203">
        <ele>758.265</ele>
        <time>2018-12-26T14:31:08Z</time>
      </trkpt>
      <trkpt lat="37.868421" lon="-1.518739">
        <ele>759.411</ele>
        <time>2018-12-26T14:31:28Z</time>
      </trkpt>
      <trkpt lat="37.868542" lon="-1.518758">
        <ele>762.408</ele>
        <time>2018-12-26T14:31:48Z</time>
      </trkpt>
      <trkpt lat="37.868324" lon="-1.519512">
        <ele>763.314</ele>
        <time>2018-12-26T14:32:08Z</time>
      </trkpt>
      <trkpt lat="37.868809" lon="-1.520456">
        <ele>775.942</ele>
        <time>2018-12-26T14:32:28Z</time>
      </trkpt>
      <trkpt lat="37.868809" lon="-1.521242">
        <ele>779.237</ele>
        <time>2018-12-26T14:32:48Z</time>
      </trkpt>
      <trkpt lat="37.868656" lon="-1.521395">
        <ele>779.464</ele>
        <time>2018-12-26T14:33:08Z</time>
      </trkpt>
      <trkpt lat="37.867350" lon="-1.521370">
        <ele>774.393</ele>
        <time>2018-12-26T14:33:48Z</time>
      </trkpt>
      <trkpt lat="37.866712" lon="-1.522910">
        <ele>798.061</ele>
        <time>2018-12-26T14:34:08Z</time>
      </trkpt>
      <trkpt lat="37.866119" lon="-1.523473">
        <ele>803.641</ele>
        <time>2018-12-26T14:34:28Z</time>
      </trkpt>
      <trkpt lat="37.864849" lon="-1.525828">
        <ele>815.969</ele>
        <time>2018-12-26T14:34:48Z</time>
      </trkpt>
      <trkpt lat="37.864343" lon="-1.526311">
        <ele>819.346</ele>
        <time>2018-12-26T14:35:08Z</time>
      </trkpt>
      <trkpt lat="37.864413" lon="-1.526912">
        <ele>821.688</ele>
        <time>2018-12-26T14:35:28Z</time>
      </trkpt>
      <trkpt lat="37.863816" lon="-1.526429">
        <ele>828.716</ele>
        <time>2018-12-26T14:35:48Z</time>
      </trkpt>
      <trkpt lat="37.864080" lon="-1.527271">
        <ele>834.308</ele>
        <time>2018-12-26T14:36:08Z</time>
      </trkpt>
      <trkpt lat="37.863528" lon="-1.527014">
        <ele>841.727</ele>
        <time>2018-12-26T14:36:28Z</time>
      </trkpt>
      <trkpt lat="37.863822" lon="-1.527961">
        <ele>850.415</ele>
        <time>2018-12-26T14:36:48Z</time>
      </trkpt>
      <trkpt lat="37.864305" lon="-1.528838">
        <ele>852.130</ele>
        <time>2018-12-26T14:37:08Z</time>
      </trkpt>
      <trkpt lat="37.864332" lon="-1.529540">
        <ele>852.637</ele>
        <time>2018-12-26T14:37:28Z</time>
      </trkpt>
      <trkpt lat="37.864051" lon="-1.530498">
        <ele>845.486</ele>
        <time>2018-12-26T14:37:48Z</time>
      </trkpt>
      <trkpt lat="37.864567" lon="-1.531949">
        <ele>849.514</ele>
        <time>2018-12-26T14:38:08Z</time>
      </trkpt>
      <trkpt lat="37.864129" lon="-1.532477">
        <ele>845.594</ele>
        <time>2018-12-26T14:38:28Z</time>
      </trkpt>
      <trkpt lat="37.863731" lon="-1.532555">
        <ele>846.882</ele>
        <time>2018-12-26T14:38:48Z</time>
      </trkpt>
      <trkpt lat="37.863525" lon="-1.531453">
        <ele>834.875</ele>
        <time>2018-12-26T14:39:08Z</time>
      </trkpt>
      <trkpt lat="37.862683" lon="-1.530965">
        <ele>824.428</ele>
        <time>2018-12-26T14:39:48Z</time>
      </trkpt>
      <trkpt lat="37.862278" lon="-1.531169">
        <ele>823.820</ele>
        <time>2018-12-26T14:40:08Z</time>
      </trkpt>
      <trkpt lat="37.861713" lon="-1.530780">
        <ele>817.008</ele>
        <time>2018-12-26T14:40:28Z</time>
      </trkpt>
      <trkpt lat="37.860866" lon="-1.530753">
        <ele>806.970</ele>
        <time>2018-12-26T14:40:48Z</time>
      </trkpt>
      <trkpt lat="37.860387" lon="-1.530418">
        <ele>800.248</ele>
        <time>2018-12-26T14:41:08Z</time>
      </trkpt>
      <trkpt lat="37.860269" lon="-1.529701">
        <ele>791.943</ele>
        <time>2018-12-26T14:41:28Z</time>
      </trkpt>
      <trkpt lat="37.860366" lon="-1.529149">
        <ele>791.260</ele>
        <time>2018-12-26T14:41:48Z</time>
      </trkpt>
      <trkpt lat="37.860106" lon="-1.527902">
        <ele>782.929</ele>
        <time>2018-12-26T14:42:08Z</time>
      </trkpt>
      <trkpt lat="37.860171" lon="-1.526864">
        <ele>785.097</ele>
        <time>2018-12-26T14:42:48Z</time>
      </trkpt>
      <trkpt lat="37.859756" lon="-1.526856">
        <ele>786.617</ele>
        <time>2018-12-26T14:43:08Z</time>
      </trkpt>
      <trkpt lat="37.859108" lon="-1.524265">
        <ele>781.235</ele>
        <time>2018-12-26T14:43:28Z</time>
      </trkpt>
      <trkpt lat="37.858469" lon="-1.523988">
        <ele>786.154</ele>
        <time>2018-12-26T14:43:48Z</time>
      </trkpt>
      <trkpt lat="37.857732" lon="-1.522044">
        <ele>785.756</ele>
        <time>2018-12-26T14:44:08Z</time>
      </trkpt>
      <trkpt lat="37.857651" lon="-1.519428">
        <ele>778.711</ele>
        <time>2018-12-26T14:44:28Z</time>
      </trkpt>
      <trkpt lat="37.857442" lon="-1.519013">
        <ele>777.608</ele>
        <time>2018-12-26T14:44:48Z</time>
      </trkpt>
      <trkpt lat="37.857456" lon="-1.518297">
        <ele>776.518</ele>
        <time>2018-12-26T14:45:08Z</time>
      </trkpt>
      <trkpt lat="37.857202" lon="-1.517784">
        <ele>778.546</ele>
        <time>2018-12-26T14:45:28Z</time>
      </trkpt>
      <trkpt lat="37.857444" lon="-1.517133">
        <ele>765.371</ele>
        <time>2018-12-26T14:45:48Z</time>
      </trkpt>
      <trkpt lat="37.857117" lon="-1.516483">
        <ele>774.528</ele>
        <time>2018-12-26T14:46:08Z</time>
      </trkpt>
      <trkpt lat="37.856961" lon="-1.515228">
        <ele>778.957</ele>
        <time>2018-12-26T14:46:28Z</time>
      </trkpt>
      <trkpt lat="37.856436" lon="-1.515142">
        <ele>778.055</ele>
        <time>2018-12-26T14:46:48Z</time>
      </trkpt>
      <trkpt lat="37.856366" lon="-1.514654">
        <ele>775.215</ele>
        <time>2018-12-26T14:47:08Z</time>
      </trkpt>
      <trkpt lat="37.855921" lon="-1.514147">
        <ele>783.153</ele>
        <time>2018-12-26T14:47:28Z</time>
      </trkpt>
      <trkpt lat="37.855838" lon="-1.513171">
        <ele>790.192</ele>
        <time>2018-12-26T14:47:48Z</time>
      </trkpt>
      <trkpt lat="37.856004" lon="-1.512463">
        <ele>789.273</ele>
        <time>2018-12-26T14:48:08Z</time>
      </trkpt>
      <trkpt lat="37.855468" lon="-1.512012">
        <ele>794.120</ele>
        <time>2018-12-26T14:48:28Z</time>
      </trkpt>
      <trkpt lat="37.855480" lon="-1.510754">
        <ele>788.808</ele>
        <time>2018-12-26T14:48:48Z</time>
      </trkpt>
      <trkpt lat="37.855279" lon="-1.510451">
        <ele>786.112</ele>
        <time>2018-12-26T14:49:08Z</time>
      </trkpt>
      <trkpt lat="37.854445" lon="-1.510100">
        <ele>787.220</ele>
        <time>2018-12-26T14:49:28Z</time>
      </trkpt>
      <trkpt lat="37.854083" lon="-1.509268">
        <ele>779.525</ele>
        <time>2018-12-26T14:49:48Z</time>
      </trkpt>
      <trkpt lat="37.853920" lon="-1.508268">
        <ele>773.282</ele>
        <time>2018-12-26T14:50:08Z</time>
      </trkpt>
      <trkpt lat="37.852871" lon="-1.508072">
        <ele>781.851</ele>
        <time>2018-12-26T14:50:48Z</time>
      </trkpt>
      <trkpt lat="37.852770" lon="-1.507849">
        <ele>779.779</ele>
        <time>2018-12-26T14:51:08Z</time>
      </trkpt>
      <trkpt lat="37.853043" lon="-1.504757">
        <ele>767.659</ele>
        <time>2018-12-26T14:51:28Z</time>
      </trkpt>
      <trkpt lat="37.852918" lon="-1.504108">
        <ele>772.037</ele>
        <time>2018-12-26T14:51:48Z</time>
      </trkpt>
      <trkpt lat="37.853621" lon="-1.503129">
        <ele>765.441</ele>
        <time>2018-12-26T14:52:08Z</time>
      </trkpt>
      <trkpt lat="37.853875" lon="-1.501793">
        <ele>756.481</ele>
        <time>2018-12-26T14:52:28Z</time>
      </trkpt>
      <trkpt lat="37.853712" lon="-1.501136">
        <ele>751.909</ele>
        <time>2018-12-26T14:52:48Z</time>
      </trkpt>
      <trkpt lat="37.853454" lon="-1.500801">
        <ele>747.308</ele>
        <time>2018-12-26T14:53:08Z</time>
      </trkpt>
      <trkpt lat="37.852878" lon="-1.500653">
        <ele>745.437</ele>
        <time>2018-12-26T14:53:28Z</time>
      </trkpt>
      <trkpt lat="37.852473" lon="-1.500884">
        <ele>748.765</ele>
        <time>2018-12-26T14:54:08Z</time>
      </trkpt>
      <trkpt lat="37.852433" lon="-1.500170">
        <ele>741.750</ele>
        <time>2018-12-26T14:54:28Z</time>
      </trkpt>
      <trkpt lat="37.852677" lon="-1.499886">
        <ele>736.387</ele>
        <time>2018-12-26T14:54:48Z</time>
      </trkpt>
      <trkpt lat="37.854373" lon="-1.499301">
        <ele>719.716</ele>
        <time>2018-12-26T14:55:08Z</time>
      </trkpt>
      <trkpt lat="37.854684" lon="-1.498816">
        <ele>715.894</ele>
        <time>2018-12-26T14:55:28Z</time>
      </trkpt>
      <trkpt lat="37.855402" lon="-1.498247">
        <ele>705.674</ele>
        <time>2018-12-26T14:55:48Z</time>
      </trkpt>
      <trkpt lat="37.855624" lon="-1.497206">
        <ele>700.682</ele>
        <time>2018-12-26T14:56:08Z</time>
      </trkpt>
      <trkpt lat="37.855442" lon="-1.496361">
        <ele>698.426</ele>
        <time>2018-12-26T14:56:28Z</time>
      </trkpt>
      <trkpt lat="37.855853" lon="-1.495602">
        <ele>687.947</ele>
        <time>2018-12-26T14:56:48Z</time>
      </trkpt>
      <trkpt lat="37.856071" lon="-1.494733">
        <ele>682.511</ele>
        <time>2018-12-26T14:57:08Z</time>
      </trkpt>
      <trkpt lat="37.855826" lon="-1.493988">
        <ele>682.108</ele>
        <time>2018-12-26T14:57:28Z</time>
      </trkpt>
      <trkpt lat="37.855874" lon="-1.493411">
        <ele>680.875</ele>
        <time>2018-12-26T14:57:48Z</time>
      </trkpt>
      <trkpt lat="37.855622" lon="-1.492547">
        <ele>678.373</ele>
        <time>2018-12-26T14:58:08Z</time>
      </trkpt>
      <trkpt lat="37.856220" lon="-1.491155">
        <ele>669.048</ele>
        <time>2018-12-26T14:58:28Z</time>
      </trkpt>
      <trkpt lat="37.856383" lon="-1.490327">
        <ele>658.915</ele>
        <time>2018-12-26T14:58:48Z</time>
      </trkpt>
      <trkpt lat="37.857257" lon="-1.488529">
        <ele>637.224</ele>
        <time>2018-12-26T14:59:08Z</time>
      </trkpt>
      <trkpt lat="37.857518" lon="-1.486987">
        <ele>618.012</ele>
        <time>2018-12-26T14:59:28Z</time>
      </trkpt>
      <trkpt lat="37.858229" lon="-1.486684">
        <ele>630.762</ele>
        <time>2018-12-26T14:59:48Z</time>
      </trkpt>
      <trkpt lat="37.858941" lon="-1.485222">
        <ele>610.780</ele>
        <time>2018-12-26T15:00:08Z</time>
      </trkpt>
      <trkpt lat="37.859623" lon="-1.484997">
        <ele>618.119</ele>
        <time>2018-12-26T15:00:28Z</time>
      </trkpt>
      <trkpt lat="37.859911" lon="-1.484222">
        <ele>614.809</ele>
        <time>2018-12-26T15:00:48Z</time>
      </trkpt>
      <trkpt lat="37.860103" lon="-1.482645">
        <ele>596.519</ele>
        <time>2018-12-26T15:01:08Z</time>
      </trkpt>
      <trkpt lat="37.860595" lon="-1.481451">
        <ele>590.608</ele>
        <time>2018-12-26T15:01:28Z</time>
      </trkpt>
      <trkpt lat="37.860633" lon="-1.480520">
        <ele>587.024</ele>
        <time>2018-12-26T15:01:48Z</time>
      </trkpt>
      <trkpt lat="37.860194" lon="-1.480123">
        <ele>575.742</ele>
        <time>2018-12-26T15:02:08Z</time>
      </trkpt>
      <trkpt lat="37.859998" lon="-1.479646">
        <ele>579.927</ele>
        <time>2018-12-26T15:02:28Z</time>
      </trkpt>
      <trkpt lat="37.859483" lon="-1.479509">
        <ele>577.724</ele>
        <time>2018-12-26T15:02:48Z</time>
      </trkpt>
      <trkpt lat="37.859000" lon="-1.480040">
        <ele>556.713</ele>
        <time>2018-12-26T15:03:08Z</time>
      </trkpt>
      <trkpt lat="37.858657" lon="-1.479324">
        <ele>555.071</ele>
        <time>2018-12-26T15:03:28Z</time>
      </trkpt>
      <trkpt lat="37.858306" lon="-1.477388">
        <ele>542.531</ele>
        <time>2018-12-26T15:03:48Z</time>
      </trkpt>
      <trkpt lat="37.858331" lon="-1.476390">
        <ele>538.979</ele>
        <time>2018-12-26T15:04:28Z</time>
      </trkpt>
      <trkpt lat="37.858742" lon="-1.474483">
        <ele>519.819</ele>
        <time>2018-12-26T15:05:08Z</time>
      </trkpt>
      <trkpt lat="37.859432" lon="-1.474330">
        <ele>521.609</ele>
        <time>2018-12-26T15:05:28Z</time>
      </trkpt>
      <trkpt lat="37.860601" lon="-1.474408">
        <ele>515.419</ele>
        <time>2018-12-26T15:05:48Z</time>
      </trkpt>
      <trkpt lat="37.861143" lon="-1.473305">
        <ele>498.908</ele>
        <time>2018-12-26T15:06:08Z</time>
      </trkpt>
      <trkpt lat="37.862191" lon="-1.473262">
        <ele>496.674</ele>
        <time>2018-12-26T15:06:28Z</time>
      </trkpt>
      <trkpt lat="37.862825" lon="-1.473667">
        <ele>494.122</ele>
        <time>2018-12-26T15:06:48Z</time>
      </trkpt>
      <trkpt lat="37.863015" lon="-1.473469">
        <ele>488.047</ele>
        <time>2018-12-26T15:07:08Z</time>
      </trkpt>
      <trkpt lat="37.862439" lon="-1.472066">
        <ele>472.994</ele>
        <time>2018-12-26T15:07:28Z</time>
      </trkpt>
      <trkpt lat="37.862772" lon="-1.471299">
        <ele>463.793</ele>
        <time>2018-12-26T15:07:48Z</time>
      </trkpt>
      <trkpt lat="37.862858" lon="-1.470226">
        <ele>456.591</ele>
        <time>2018-12-26T15:08:08Z</time>
      </trkpt>
      <trkpt lat="37.862473" lon="-1.469966">
        <ele>450.981</ele>
        <time>2018-12-26T15:08:48Z</time>
      </trkpt>
      <trkpt lat="37.862024" lon="-1.470068">
        <ele>448.659</ele>
        <time>2018-12-26T15:09:08Z</time>
      </trkpt>
      <trkpt lat="37.861562" lon="-1.471269">
        <ele>453.173</ele>
        <time>2018-12-26T15:09:28Z</time>
      </trkpt>
      <trkpt lat="37.861300" lon="-1.471457">
        <ele>455.685</ele>
        <time>2018-12-26T15:09:48Z</time>
      </trkpt>
      <trkpt lat="37.861033" lon="-1.471299">
        <ele>456.413</ele>
        <time>2018-12-26T15:10:08Z</time>
      </trkpt>
      <trkpt lat="37.861016" lon="-1.470580">
        <ele>443.308</ele>
        <time>2018-12-26T15:10:28Z</time>
      </trkpt>
      <trkpt lat="37.860813" lon="-1.470293">
        <ele>437.380</ele>
        <time>2018-12-26T15:10:48Z</time>
      </trkpt>
      <trkpt lat="37.860366" lon="-1.470277">
        <ele>430.578</ele>
        <time>2018-12-26T15:11:08Z</time>
      </trkpt>
      <trkpt lat="37.859621" lon="-1.470722">
        <ele>441.493</ele>
        <time>2018-12-26T15:11:28Z</time>
      </trkpt>
      <trkpt lat="37.858918" lon="-1.470301">
        <ele>432.110</ele>
        <time>2018-12-26T15:11:48Z</time>
      </trkpt>
      <trkpt lat="37.858740" lon="-1.469893">
        <ele>422.869</ele>
        <time>2018-12-26T15:12:08Z</time>
      </trkpt>
      <trkpt lat="37.858725" lon="-1.468949">
        <ele>413.497</ele>
        <time>2018-12-26T15:12:28Z</time>
      </trkpt>
      <trkpt lat="37.858092" lon="-1.469094">
        <ele>406.597</ele>
        <time>2018-12-26T15:13:08Z</time>
      </trkpt>
      <trkpt lat="37.857939" lon="-1.469824">
        <ele>417.115</ele>
        <time>2018-12-26T15:13:28Z</time>
      </trkpt>
      <trkpt lat="37.857259" lon="-1.469735">
        <ele>410.444</ele>
        <time>2018-12-26T15:13:48Z</time>
      </trkpt>
      <trkpt lat="37.856620" lon="-1.470411">
        <ele>409.705</ele>
        <time>2018-12-26T15:14:08Z</time>
      </trkpt>
      <trkpt lat="37.855663" lon="-1.470623">
        <ele>397.815</ele>
        <time>2018-12-26T15:14:28Z</time>
      </trkpt>
      <trkpt lat="37.855392" lon="-1.470948">
        <ele>393.908</ele>
        <time>2018-12-26T15:14:48Z</time>
      </trkpt>
      <trkpt lat="37.854868" lon="-1.472302">
        <ele>411.387</ele>
        <time>2018-12-26T15:15:08Z</time>
      </trkpt>
      <trkpt lat="37.854604" lon="-1.472439">
        <ele>412.855</ele>
        <time>2018-12-26T15:15:28Z</time>
      </trkpt>
      <trkpt lat="37.854324" lon="-1.471251">
        <ele>380.460</ele>
        <time>2018-12-26T15:15:48Z</time>
      </trkpt>
      <trkpt lat="37.854115" lon="-1.471082">
        <ele>377.677</ele>
        <time>2018-12-26T15:16:08Z</time>
      </trkpt>
      <trkpt lat="37.852890" lon="-1.471334">
        <ele>383.916</ele>
        <time>2018-12-26T15:16:28Z</time>
      </trkpt>
      <trkpt lat="37.852609" lon="-1.471235">
        <ele>381.444</ele>
        <time>2018-12-26T15:16:48Z</time>
      </trkpt>
      <trkpt lat="37.852704" lon="-1.471007">
        <ele>374.114</ele>
        <time>2018-12-26T15:17:08Z</time>
      </trkpt>
      <trkpt lat="37.853335" lon="-1.470950">
        <ele>369.612</ele>
        <time>2018-12-26T15:17:28Z</time>
      </trkpt>
      <trkpt lat="37.853860" lon="-1.470462">
        <ele>362.023</ele>
        <time>2018-12-26T15:17:48Z</time>
      </trkpt>
      <trkpt lat="37.854441" lon="-1.470371">
        <ele>363.383</ele>
        <time>2018-12-26T15:18:08Z</time>
      </trkpt>
      <trkpt lat="37.854572" lon="-1.469998">
        <ele>361.211</ele>
        <time>2018-12-26T15:18:28Z</time>
      </trkpt>
      <trkpt lat="37.854187" lon="-1.469808">
        <ele>358.108</ele>
        <time>2018-12-26T15:18:48Z</time>
      </trkpt>
      <trkpt lat="37.853348" lon="-1.469808">
        <ele>353.425</ele>
        <time>2018-12-26T15:19:08Z</time>
      </trkpt>
      <trkpt lat="37.852562" lon="-1.468904">
        <ele>344.773</ele>
        <time>2018-12-26T15:19:28Z</time>
      </trkpt>
      <trkpt lat="37.851734" lon="-1.468952">
        <ele>331.658</ele>
        <time>2018-12-26T15:19:48Z</time>
      </trkpt>
      <trkpt lat="37.851459" lon="-1.468708">
        <ele>328.665</ele>
        <time>2018-12-26T15:20:08Z</time>
      </trkpt>
      <trkpt lat="37.850955" lon="-1.467707">
        <ele>324.134</ele>
        <time>2018-12-26T15:20:28Z</time>
      </trkpt>
      <trkpt lat="37.849627" lon="-1.467101">
        <ele>315.422</ele>
        <time>2018-12-26T15:20:48Z</time>
      </trkpt>
      <trkpt lat="37.849404" lon="-1.465921">
        <ele>310.862</ele>
        <time>2018-12-26T15:21:08Z</time>
      </trkpt>
      <trkpt lat="37.849544" lon="-1.465036">
        <ele>305.770</ele>
        <time>2018-12-26T15:21:28Z</time>
      </trkpt>
      <trkpt lat="37.849781" lon="-1.464821">
        <ele>305.489</ele>
        <time>2018-12-26T15:21:48Z</time>
      </trkpt>
      <trkpt lat="37.850726" lon="-1.464934">
        <ele>307.306</ele>
        <time>2018-12-26T15:22:08Z</time>
      </trkpt>
      <trkpt lat="37.850815" lon="-1.464636">
        <ele>304.926</ele>
        <time>2018-12-26T15:22:28Z</time>
      </trkpt>
      <trkpt lat="37.850665" lon="-1.464108">
        <ele>299.408</ele>
        <time>2018-12-26T15:22:48Z</time>
      </trkpt>
      <trkpt lat="37.851003" lon="-1.462912">
        <ele>296.291</ele>
        <time>2018-12-26T15:23:08Z</time>
      </trkpt>
      <trkpt lat="37.850773" lon="-1.462568">
        <ele>295.859</ele>
        <time>2018-12-26T15:23:28Z</time>
      </trkpt>
      <trkpt lat="37.849786" lon="-1.462289">
        <ele>288.064</ele>
        <time>2018-12-26T15:24:08Z</time>
      </trkpt>
      <trkpt lat="37.850031" lon="-1.460055">
        <ele>276.921</ele>
        <time>2018-12-26T15:24:28Z</time>
      </trkpt>
      <trkpt lat="37.849309" lon="-1.458132">
        <ele>267.590</ele>
        <time>2018-12-26T15:24:48Z</time>
      </trkpt>
      <trkpt lat="37.849934" lon="-1.457392">
        <ele>263.298</ele>
        <time>2018-12-26T15:25:08Z</time>
      </trkpt>
      <trkpt lat="37.849934" lon="-1.456912">
        <ele>257.088</ele>
        <time>2018-12-26T15:25:28Z</time>
      </trkpt>
      <trkpt lat="37.849555" lon="-1.455686">
        <ele>252.276</ele>
        <time>2018-12-26T15:25:48Z</time>
      </trkpt>
      <trkpt lat="37.848123" lon="-1.453969">
        <ele>257.957</ele>
        <time>2018-12-26T15:26:08Z</time>
      </trkpt>
      <trkpt lat="37.847985" lon="-1.453457">
        <ele>257.600</ele>
        <time>2018-12-26T15:26:28Z</time>
      </trkpt>
      <trkpt lat="37.848318" lon="-1.451735">
        <ele>253.120</ele>
        <time>2018-12-26T15:26:48Z</time>
      </trkpt>
      <trkpt lat="37.848830" lon="-1.444927">
        <ele>228.208</ele>
        <time>2018-12-26T15:27:08Z</time>
      </trkpt>
      <trkpt lat="37.849881" lon="-1.442589">
        <ele>220.858</ele>
        <time>2018-12-26T15:27:28Z</time>
      </trkpt>
      <trkpt lat="37.851427" lon="-1.436862">
        <ele>211.146</ele>
        <time>2018-12-26T15:27:48Z</time>
      </trkpt>
      <trkpt lat="37.851759" lon="-1.434601">
        <ele>211.781</ele>
        <time>2018-12-26T15:28:08Z</time>
      </trkpt>
      <trkpt lat="37.850980" lon="-1.427182">
        <ele>206.028</ele>
        <time>2018-12-26T15:28:28Z</time>
      </trkpt>
      <trkpt lat="37.851082" lon="-1.423293">
        <ele>201.667</ele>
        <time>2018-12-26T15:28:48Z</time>
      </trkpt>
      <trkpt lat="37.851255" lon="-1.422703">
        <ele>200.445</ele>
        <time>2018-12-26T15:29:08Z</time>
      </trkpt>
      <trkpt lat="37.848138" lon="-1.417043">
        <ele>176.055</ele>
        <time>2018-12-26T15:29:28Z</time>
      </trkpt>
      <trkpt lat="37.849328" lon="-1.415713">
        <ele>174.683</ele>
        <time>2018-12-26T15:29:48Z</time>
      </trkpt>
      <trkpt lat="37.848667" lon="-1.415192">
        <ele>170.941</ele>
        <time>2018-12-26T15:30:08Z</time>
      </trkpt>
      <trkpt lat="37.849485" lon="-1.413551">
        <ele>171.181</ele>
        <time>2018-12-26T15:30:28Z</time>
      </trkpt>
      <trkpt lat="37.849760" lon="-1.412441">
        <ele>170.109</ele>
        <time>2018-12-26T15:30:48Z</time>
      </trkpt>
      <trkpt lat="37.849650" lon="-1.411293">
        <ele>167.608</ele>
        <time>2018-12-26T15:31:08Z</time>
      </trkpt>
      <trkpt lat="37.848862" lon="-1.410327">
        <ele>167.067</ele>
        <time>2018-12-26T15:31:28Z</time>
      </trkpt>
      <trkpt lat="37.844711" lon="-1.403916">
        <ele>157.055</ele>
        <time>2018-12-26T15:31:48Z</time>
      </trkpt>
      <trkpt lat="37.844207" lon="-1.401315">
        <ele>154.850</ele>
        <time>2018-12-26T15:32:08Z</time>
      </trkpt>
      <trkpt lat="37.842741" lon="-1.399223">
        <ele>151.987</ele>
        <time>2018-12-26T15:32:28Z</time>
      </trkpt>
      <trkpt lat="37.841885" lon="-1.399158">
        <ele>153.966</ele>
        <time>2018-12-26T15:32:48Z</time>
      </trkpt>
      <trkpt lat="37.841631" lon="-1.398885">
        <ele>153.194</ele>
        <time>2018-12-26T15:33:08Z</time>
      </trkpt>
      <trkpt lat="37.841462" lon="-1.397420">
        <ele>153.864</ele>
        <time>2018-12-26T15:33:28Z</time>
      </trkpt>
      <trkpt lat="37.839132" lon="-1.394073">
        <ele>151.712</ele>
        <time>2018-12-26T15:34:08Z</time>
      </trkpt>
      <trkpt lat="37.829451" lon="-1.382496">
        <ele>153.081</ele>
        <time>2018-12-26T15:34:28Z</time>
      </trkpt>
      <trkpt lat="37.828180" lon="-1.379755">
        <ele>146.961</ele>
        <time>2018-12-26T15:34:48Z</time>
      </trkpt>
      <trkpt lat="37.826319" lon="-1.377770">
        <ele>156.517</ele>
        <time>2018-12-26T15:35:08Z</time>
      </trkpt>
      <trkpt lat="37.824972" lon="-1.370957">
        <ele>157.108</ele>
        <time>2018-12-26T15:35:28Z</time>
      </trkpt>
      <trkpt lat="37.822747" lon="-1.364805">
        <ele>164.791</ele>
        <time>2018-12-26T15:35:48Z</time>
      </trkpt>
      <trkpt lat="37.836742" lon="-1.356801">
        <ele>156.019</ele>
        <time>2018-12-26T15:36:08Z</time>
      </trkpt>
      <trkpt lat="37.842067" lon="-1.351989">
        <ele>150.094</ele>
        <time>2018-12-26T15:36:28Z</time>
      </trkpt>
      <trkpt lat="37.852153" lon="-1.346351">
        <ele>149.451</ele>
        <time>2018-12-26T15:36:48Z</time>
      </trkpt>
      <trkpt lat="37.859049" lon="-1.339973">
        <ele>149.620</ele>
        <time>2018-12-26T15:37:08Z</time>
      </trkpt>
      <trkpt lat="37.861942" lon="-1.336244">
        <ele>156.528</ele>
        <time>2018-12-26T15:37:28Z</time>
      </trkpt>
      <trkpt lat="37.863830" lon="-1.332806">
        <ele>156.918</ele>
        <time>2018-12-26T15:37:48Z</time>
      </trkpt>
      <trkpt lat="37.866926" lon="-1.325719">
        <ele>162.726</ele>
        <time>2018-12-26T15:38:28Z</time>
      </trkpt>
      <trkpt lat="37.867655" lon="-1.321267">
        <ele>169.427</ele>
        <time>2018-12-26T15:38:48Z</time>
      </trkpt>
      <trkpt lat="37.869196" lon="-1.317496">
        <ele>178.968</ele>
        <time>2018-12-26T15:39:08Z</time>
      </trkpt>
      <trkpt lat="37.871559" lon="-1.313038">
        <ele>179.614</ele>
        <time>2018-12-26T15:39:28Z</time>
      </trkpt>
      <trkpt lat="37.873316" lon="-1.306584">
        <ele>165.408</ele>
        <time>2018-12-26T15:39:48Z</time>
      </trkpt>
      <trkpt lat="37.873600" lon="-1.306139">
        <ele>162.275</ele>
        <time>2018-12-26T15:40:08Z</time>
      </trkpt>
      <trkpt lat="37.876191" lon="-1.303838">
        <ele>169.873</ele>
        <time>2018-12-26T15:40:28Z</time>
      </trkpt>
      <trkpt lat="37.877479" lon="-1.300812">
        <ele>174.128</ele>
        <time>2018-12-26T15:40:48Z</time>
      </trkpt>
      <trkpt lat="37.880887" lon="-1.296751">
        <ele>166.725</ele>
        <time>2018-12-26T15:41:08Z</time>
      </trkpt>
      <trkpt lat="37.881984" lon="-1.295759">
        <ele>164.424</ele>
        <time>2018-12-26T15:41:28Z</time>
      </trkpt>
      <trkpt lat="37.884939" lon="-1.291757">
        <ele>152.852</ele>
        <time>2018-12-26T15:41:48Z</time>
      </trkpt>
      <trkpt lat="37.885917" lon="-1.289531">
        <ele>154.172</ele>
        <time>2018-12-26T15:42:08Z</time>
      </trkpt>
      <trkpt lat="37.886988" lon="-1.288603">
        <ele>149.180</ele>
        <time>2018-12-26T15:42:48Z</time>
      </trkpt>
      <trkpt lat="37.888690" lon="-1.288168">
        <ele>146.569</ele>
        <time>2018-12-26T15:43:08Z</time>
      </trkpt>
      <trkpt lat="37.891290" lon="-1.287090">
        <ele>129.104</ele>
        <time>2018-12-26T15:43:28Z</time>
      </trkpt>
      <trkpt lat="37.892407" lon="-1.287283">
        <ele>122.224</ele>
        <time>2018-12-26T15:43:48Z</time>
      </trkpt>
      <trkpt lat="37.893203" lon="-1.287788">
        <ele>120.008</ele>
        <time>2018-12-26T15:44:08Z</time>
      </trkpt>
      <trkpt lat="37.893842" lon="-1.287793">
        <ele>119.329</ele>
        <time>2018-12-26T15:44:28Z</time>
      </trkpt>
      <trkpt lat="37.896924" lon="-1.286623">
        <ele>109.057</ele>
        <time>2018-12-26T15:44:48Z</time>
      </trkpt>
      <trkpt lat="37.897652" lon="-1.285792">
        <ele>109.152</ele>
        <time>2018-12-26T15:45:08Z</time>
      </trkpt>
      <trkpt lat="37.899892" lon="-1.284199">
        <ele>106.859</ele>
        <time>2018-12-26T15:45:48Z</time>
      </trkpt>
      <trkpt lat="37.901001" lon="-1.282434">
        <ele>106.438</ele>
        <time>2018-12-26T15:46:08Z</time>
      </trkpt>
      <trkpt lat="37.903362" lon="-1.279467">
        <ele>106.226</ele>
        <time>2018-12-26T15:46:28Z</time>
      </trkpt>
      <trkpt lat="37.904713" lon="-1.278416">
        <ele>97.166</ele>
        <time>2018-12-26T15:46:48Z</time>
      </trkpt>
      <trkpt lat="37.905661" lon="-1.277397">
        <ele>99.914</ele>
        <time>2018-12-26T15:47:08Z</time>
      </trkpt>
      <trkpt lat="37.906300" lon="-1.275830">
        <ele>98.332</ele>
        <time>2018-12-26T15:47:28Z</time>
      </trkpt>
      <trkpt lat="37.906926" lon="-1.275192">
        <ele>97.592</ele>
        <time>2018-12-26T15:47:48Z</time>
      </trkpt>
      <trkpt lat="37.907417" lon="-1.273620">
        <ele>91.111</ele>
        <time>2018-12-26T15:48:08Z</time>
      </trkpt>
      <trkpt lat="37.907138" lon="-1.272558">
        <ele>96.708</ele>
        <time>2018-12-26T15:48:28Z</time>
      </trkpt>
      <trkpt lat="37.907185" lon="-1.271635">
        <ele>98.616</ele>
        <time>2018-12-26T15:48:48Z</time>
      </trkpt>
      <trkpt lat="37.907828" lon="-1.271142">
        <ele>97.294</ele>
        <time>2018-12-26T15:49:08Z</time>
      </trkpt>
      <trkpt lat="37.908128" lon="-1.269935">
        <ele>97.589</ele>
        <time>2018-12-26T15:49:28Z</time>
      </trkpt>
      <trkpt lat="37.908835" lon="-1.268701">
        <ele>98.566</ele>
        <time>2018-12-26T15:49:48Z</time>
      </trkpt>
      <trkpt lat="37.910122" lon="-1.267022">
        <ele>97.965</ele>
        <time>2018-12-26T15:50:08Z</time>
      </trkpt>
      <trkpt lat="37.911252" lon="-1.266083">
        <ele>97.483</ele>
        <time>2018-12-26T15:50:28Z</time>
      </trkpt>
      <trkpt lat="37.912247" lon="-1.263229">
        <ele>98.923</ele>
        <time>2018-12-26T15:50:48Z</time>
      </trkpt>
      <trkpt lat="37.912280" lon="-1.257666">
        <ele>98.271</ele>
        <time>2018-12-26T15:51:08Z</time>
      </trkpt>
      <trkpt lat="37.913677" lon="-1.255220">
        <ele>91.215</ele>
        <time>2018-12-26T15:51:28Z</time>
      </trkpt>
      <trkpt lat="37.914473" lon="-1.252865">
        <ele>89.265</ele>
        <time>2018-12-26T15:51:48Z</time>
      </trkpt>
      <trkpt lat="37.916965" lon="-1.248381">
        <ele>83.911</ele>
        <time>2018-12-26T15:52:08Z</time>
      </trkpt>
      <trkpt lat="37.917829" lon="-1.245908">
        <ele>84.008</ele>
        <time>2018-12-26T15:52:28Z</time>
      </trkpt>
      <trkpt lat="37.918734" lon="-1.242651">
        <ele>85.034</ele>
        <time>2018-12-26T15:52:48Z</time>
      </trkpt>
      <trkpt lat="37.921083" lon="-1.238167">
        <ele>86.482</ele>
        <time>2018-12-26T15:53:08Z</time>
      </trkpt>
      <trkpt lat="37.922450" lon="-1.236128">
        <ele>87.837</ele>
        <time>2018-12-26T15:53:28Z</time>
      </trkpt>
      <trkpt lat="37.923508" lon="-1.234117">
        <ele>87.974</ele>
        <time>2018-12-26T15:53:48Z</time>
      </trkpt>
      <trkpt lat="37.924032" lon="-1.232067">
        <ele>84.353</ele>
        <time>2018-12-26T15:54:08Z</time>
      </trkpt>
      <trkpt lat="37.924126" lon="-1.228597">
        <ele>81.211</ele>
        <time>2018-12-26T15:54:28Z</time>
      </trkpt>
      <trkpt lat="37.924714" lon="-1.226649">
        <ele>87.091</ele>
        <time>2018-12-26T15:54:48Z</time>
      </trkpt>
      <trkpt lat="37.925594" lon="-1.225008">
        <ele>82.069</ele>
        <time>2018-12-26T15:55:08Z</time>
      </trkpt>
      <trkpt lat="37.927100" lon="-1.223463">
        <ele>79.215</ele>
        <time>2018-12-26T15:55:28Z</time>
      </trkpt>
      <trkpt lat="37.927621" lon="-1.222427">
        <ele>78.065</ele>
        <time>2018-12-26T15:55:48Z</time>
      </trkpt>
      <trkpt lat="37.927739" lon="-1.221558">
        <ele>76.211</ele>
        <time>2018-12-26T15:56:08Z</time>
      </trkpt>
      <trkpt lat="37.928230" lon="-1.222068">
        <ele>76.408</ele>
        <time>2018-12-26T15:56:48Z</time>
      </trkpt>
      <trkpt lat="37.930447" lon="-1.223575">
        <ele>73.374</ele>
        <time>2018-12-26T15:57:28Z</time>
      </trkpt>
      <trkpt lat="37.930621" lon="-1.223490">
        <ele>72.372</ele>
        <time>2018-12-26T15:57:48Z</time>
      </trkpt>
      <trkpt lat="37.932262" lon="-1.217964">
        <ele>71.697</ele>
        <time>2018-12-26T15:58:08Z</time>
      </trkpt>
      <trkpt lat="37.935465" lon="-1.210610">
        <ele>65.784</ele>
        <time>2018-12-26T15:58:28Z</time>
      </trkpt>
      <trkpt lat="37.935948" lon="-1.208577">
        <ele>68.993</ele>
        <time>2018-12-26T15:58:48Z</time>
      </trkpt>
      <trkpt lat="37.936079" lon="-1.206726">
        <ele>67.251</ele>
        <time>2018-12-26T15:59:08Z</time>
      </trkpt>
      <trkpt lat="37.935914" lon="-1.206377">
        <ele>68.451</ele>
        <time>2018-12-26T15:59:28Z</time>
      </trkpt>
      <trkpt lat="37.935986" lon="-1.206184">
        <ele>67.299</ele>
        <time>2018-12-26T15:59:48Z</time>
      </trkpt>
      <trkpt lat="37.936620" lon="-1.206350">
        <ele>66.144</ele>
        <time>2018-12-26T16:00:28Z</time>
      </trkpt>
      <trkpt lat="37.937898" lon="-1.206286">
        <ele>67.305</ele>
        <time>2018-12-26T16:00:48Z</time>
      </trkpt>
      <trkpt lat="37.938719" lon="-1.206597">
        <ele>67.515</ele>
        <time>2018-12-26T16:01:08Z</time>
      </trkpt>
      <trkpt lat="37.953356" lon="-1.217680">
        <ele>61.508</ele>
        <time>2018-12-26T16:01:28Z</time>
      </trkpt>
      <trkpt lat="37.958715" lon="-1.221939">
        <ele>66.087</ele>
        <time>2018-12-26T16:01:48Z</time>
      </trkpt>
      <trkpt lat="37.959261" lon="-1.221135">
        <ele>63.335</ele>
        <time>2018-12-26T16:02:08Z</time>
      </trkpt>
      <trkpt lat="37.960610" lon="-1.222717">
        <ele>70.910</ele>
        <time>2018-12-26T16:02:28Z</time>
      </trkpt>
      <trkpt lat="37.962213" lon="-1.223420">
        <ele>71.657</ele>
        <time>2018-12-26T16:02:48Z</time>
      </trkpt>
      <trkpt lat="37.962826" lon="-1.223962">
        <ele>74.736</ele>
        <time>2018-12-26T16:03:08Z</time>
      </trkpt>
      <trkpt lat="37.963710" lon="-1.223972">
        <ele>76.454</ele>
        <time>2018-12-26T16:03:28Z</time>
      </trkpt>
      <trkpt lat="37.964746" lon="-1.223538">
        <ele>77.164</ele>
        <time>2018-12-26T16:03:48Z</time>
      </trkpt>
      <trkpt lat="37.967580" lon="-1.223752">
        <ele>89.762</ele>
        <time>2018-12-26T16:04:28Z</time>
      </trkpt>
      <trkpt lat="37.969720" lon="-1.224402">
        <ele>79.953</ele>
        <time>2018-12-26T16:04:48Z</time>
      </trkpt>
      <trkpt lat="37.970603" lon="-1.224402">
        <ele>75.004</ele>
        <time>2018-12-26T16:05:08Z</time>
      </trkpt>
      <trkpt lat="37.971711" lon="-1.223806">
        <ele>74.314</ele>
        <time>2018-12-26T16:05:28Z</time>
      </trkpt>
      <trkpt lat="37.972392" lon="-1.223184">
        <ele>73.708</ele>
        <time>2018-12-26T16:05:48Z</time>
      </trkpt>
      <trkpt lat="37.972790" lon="-1.223093">
        <ele>73.378</ele>
        <time>2018-12-26T16:06:08Z</time>
      </trkpt>
      <trkpt lat="37.973881" lon="-1.222159">
        <ele>69.066</ele>
        <time>2018-12-26T16:06:28Z</time>
      </trkpt>
      <trkpt lat="37.974342" lon="-1.221446">
        <ele>69.021</ele>
        <time>2018-12-26T16:06:48Z</time>
      </trkpt>
      <trkpt lat="37.975208" lon="-1.219048">
        <ele>67.718</ele>
        <time>2018-12-26T16:07:08Z</time>
      </trkpt>
      <trkpt lat="37.977483" lon="-1.214279">
        <ele>64.767</ele>
        <time>2018-12-26T16:07:48Z</time>
      </trkpt>
      <trkpt lat="37.977682" lon="-1.213126">
        <ele>60.135</ele>
        <time>2018-12-26T16:08:08Z</time>
      </trkpt>
      <trkpt lat="37.977310" lon="-1.211404">
        <ele>59.165</ele>
        <time>2018-12-26T16:08:28Z</time>
      </trkpt>
      <trkpt lat="37.976498" lon="-1.209773">
        <ele>53.593</ele>
        <time>2018-12-26T16:08:48Z</time>
      </trkpt>
      <trkpt lat="37.975906" lon="-1.209016">
        <ele>56.948</ele>
        <time>2018-12-26T16:09:08Z</time>
      </trkpt>
      <trkpt lat="37.975813" lon="-1.208598">
        <ele>58.161</ele>
        <time>2018-12-26T16:09:28Z</time>
      </trkpt>
      <trkpt lat="37.974904" lon="-1.207117">
        <ele>60.717</ele>
        <time>2018-12-26T16:09:48Z</time>
      </trkpt>
      <trkpt lat="37.973551" lon="-1.205605">
        <ele>59.208</ele>
        <time>2018-12-26T16:10:08Z</time>
      </trkpt>
      <trkpt lat="37.973327" lon="-1.205873">
        <ele>61.367</ele>
        <time>2018-12-26T16:10:28Z</time>
      </trkpt>
      <trkpt lat="37.973255" lon="-1.207804">
        <ele>62.795</ele>
        <time>2018-12-26T16:10:48Z</time>
      </trkpt>
      <trkpt lat="37.970942" lon="-1.211447">
        <ele>73.970</ele>
        <time>2018-12-26T16:11:08Z</time>
      </trkpt>
      <trkpt lat="37.969791" lon="-1.213839">
        <ele>73.467</ele>
        <time>2018-12-26T16:11:28Z</time>
      </trkpt>
    </trkseg>
  </trk>
</gpx>
